Time;durP1;ratioP1;P1;durP2;ratioP2;P2;SDS_P1;SDS_P2;PMS_P1;PMS_P2;Temp;Humidity;BMP_temperature;BMP_pressure;BME280_temperature;BME280_humidity;BME280_pressure;Samples;Min_cycle;Max_cycle;Signal;HPM_P1;HPM_P2
2021/09/16 00:01:11;;;;;;;;;10.25;9.50;;;;;20.30;63.72;101236.09;6342110;22;45603;-71
2021/09/16 00:03:37;;;;;;;;;10.50;9.25;;;;;20.35;63.68;101242.09;6341603;22;45297;-71
2021/09/16 00:06:02;;;;;;;;;6.75;6.75;;;;;20.34;64.28;101233.06;6341763;22;45330;-71
2021/09/16 00:08:27;;;;;;;;;10.25;10.25;;;;;20.48;64.21;101250.25;6339027;22;45744;-71
2021/09/16 00:10:54;;;;;;;;;11.50;9.00;;;;;20.33;64.23;101223.22;6339632;22;45337;-71
2021/09/16 00:13:19;;;;;;;;;8.25;8.25;;;;;20.34;64.04;101229.50;6366301;22;45462;-71
2021/09/16 00:15:44;;;;;;;;;5.00;4.25;;;;;20.46;64.34;101257.63;6342056;22;45221;-71
2021/09/16 00:18:10;;;;;;;;;6.25;4.00;;;;;20.44;64.29;101246.91;6341282;22;45241;-70
2021/09/16 00:20:35;;;;;;;;;9.50;8.00;;;;;20.49;63.93;101254.72;6341804;22;45299;-71
2021/09/16 00:23:01;;;;;;;;;5.00;5.00;;;;;20.40;64.09;101233.63;6366165;22;45495;-71
2021/09/16 00:25:27;;;;;;;;;10.75;10.75;;;;;20.32;63.97;101218.75;6339422;22;47053;-71
2021/09/16 00:27:52;;;;;;;;;10.50;10.50;;;;;20.49;63.97;101244.75;6341649;22;45218;-71
2021/09/16 00:30:18;;;;;;;;;8.25;7.25;;;;;20.40;63.99;101231.81;6341714;22;45273;-70
2021/09/16 00:32:43;;;;;;;;;2.25;2.25;;;;;20.40;64.24;101228.22;6339187;22;45212;-71
2021/09/16 00:35:09;;;;;;;;;12.75;11.00;;;;;20.30;64.03;101215.28;6341827;22;45315;-71
2021/09/16 00:37:35;;;;;;;;;11.75;11.75;;;;;20.47;63.93;101245.84;6339601;22;45270;-71
2021/09/16 00:40:02;;;;;;;;;12.50;8.00;;;;;20.33;63.93;101230.47;6339493;22;45250;-71
2021/09/16 00:42:27;;;;;;;;;8.00;7.00;;;;;20.38;64.21;101233.75;6341212;22;45438;-71
2021/09/16 00:44:53;;;;;;;;;12.00;11.25;;;;;20.33;64.51;101234.06;6341385;22;45372;-71
2021/09/16 00:47:18;;;;;;;;;13.75;11.25;;;;;20.46;63.90;101257.63;6341251;22;45204;-71
2021/09/16 00:49:44;;;;;;;;;9.25;9.25;;;;;20.32;64.04;101237.72;6341799;22;45229;-70
2021/09/16 00:52:11;;;;;;;;;9.25;7.75;;;;;20.40;64.06;101253.50;6341501;22;45431;-71
2021/09/16 00:54:39;;;;;;;;;10.25;10.25;;;;;20.32;64.44;101245.00;6341584;22;45262;-71
2021/09/16 00:57:05;;;;;;;;;7.00;6.75;;;;;20.41;64.22;101254.38;6341514;22;45495;-70
2021/09/16 00:59:33;;;;;;;;;8.00;8.00;;;;;20.38;63.91;101252.75;6341264;22;45304;-71
2021/09/16 01:01:59;;;;;;;;;7.75;7.25;;;;;20.48;64.52;101261.13;6341338;22;45191;-71
2021/09/16 01:04:24;;;;;;;;;6.50;6.50;;;;;20.39;64.48;101256.31;6341650;22;45387;-71
2021/09/16 01:06:49;;;;;;;;;9.00;8.50;;;;;20.40;64.01;101252.63;6341683;22;45269;-70
2021/09/16 01:09:15;;;;;;;;;8.75;8.50;;;;;20.46;64.33;101268.50;6341276;22;45326;-71
2021/09/16 01:11:41;;;;;;;;;9.75;9.75;;;;;20.47;64.36;101262.97;6366327;22;45475;-70
2021/09/16 01:14:10;;;;;;;;;11.50;10.75;;;;;20.35;64.25;101248.38;6339919;22;46062;-70
2021/09/16 01:16:36;;;;;;;;;10.00;7.25;;;;;20.45;64.20;101273.06;6341336;22;45250;-70
2021/09/16 01:19:01;;;;;;;;;8.00;8.00;;;;;20.36;63.78;101249.25;6341257;22;45305;-70
2021/09/16 01:21:27;;;;;;;;;7.25;7.25;;;;;20.21;64.21;101228.56;6341301;22;45518;-71
2021/09/16 01:23:52;;;;;;;;;11.25;6.25;;;;;20.32;64.63;101245.84;6340651;22;45355;-71
2021/09/16 01:26:17;;;;;;;;;6.75;6.75;;;;;20.24;64.23;101239.22;6341557;22;45459;-71
2021/09/16 01:28:43;;;;;;;;;7.25;6.50;;;;;20.18;63.99;101233.22;6341352;22;45289;-70
2021/09/16 01:31:08;;;;;;;;;8.00;7.00;;;;;20.27;64.51;101253.44;6340902;22;45435;-70
2021/09/16 01:33:34;;;;;;;;;9.25;9.25;;;;;20.28;63.93;101257.88;6340729;22;45275;-70
2021/09/16 01:35:59;;;;;;;;;8.00;8.00;;;;;20.30;64.08;101261.38;6341645;22;45300;-70
2021/09/16 01:38:25;;;;;;;;;11.25;8.50;;;;;20.44;64.38;101282.16;6340977;22;45194;-71
2021/09/16 01:40:51;;;;;;;;;9.25;9.00;;;;;20.24;64.28;101245.50;6341441;22;45182;-71
2021/09/16 01:43:17;;;;;;;;;9.25;7.75;;;;;20.36;64.32;101266.41;6340994;22;46137;-71
2021/09/16 01:45:43;;;;;;;;;6.75;6.75;;;;;20.35;64.78;101267.34;6341341;22;45166;-71
2021/09/16 01:48:08;;;;;;;;;9.00;8.00;;;;;20.44;64.68;101278.56;6341105;22;45389;-71
2021/09/16 01:50:34;;;;;;;;;7.50;7.50;;;;;20.32;64.81;101264.84;6341257;22;45198;-70
2021/09/16 01:52:59;;;;;;;;;12.50;10.75;;;;;20.29;64.71;101259.63;6341228;22;45430;-70
2021/09/16 01:55:24;;;;;;;;;10.00;9.00;;;;;20.35;64.48;101275.50;6341312;22;45084;-71
2021/09/16 01:57:50;;;;;;;;;11.75;8.00;;;;;20.46;64.29;101292.88;6341472;22;45168;-71
2021/09/16 02:00:16;;;;;;;;;10.00;8.50;;;;;20.48;64.42;101296.38;6341096;22;45615;-71
2021/09/16 02:02:42;;;;;;;;;11.25;10.00;;;;;20.46;64.33;101291.03;6340537;22;45296;-71
2021/09/16 02:05:08;;;;;;;;;10.50;9.75;;;;;20.42;64.45;101283.22;6339262;22;45361;-70
2021/09/16 02:07:34;;;;;;;;;11.75;10.50;;;;;20.28;64.38;101262.41;6341212;22;45306;-71
2021/09/16 02:09:59;;;;;;;;;10.50;8.75;;;;;20.38;64.18;101268.13;6339308;22;45258;-70
2021/09/16 02:12:25;;;;;;;;;12.25;10.25;;;;;20.44;64.07;101295.69;6338972;22;45566;-70
2021/09/16 02:14:51;;;;;;;;;10.25;10.25;;;;;20.45;64.25;101292.03;6340969;22;45355;-71
2021/09/16 02:17:16;;;;;;;;;9.00;9.00;;;;;20.46;64.30;101301.03;6341061;22;45269;-70
2021/09/16 02:19:41;;;;;;;;;9.00;9.00;;;;;20.45;64.17;101293.88;6340930;22;45213;-70
2021/09/16 02:22:07;;;;;;;;;9.25;8.25;;;;;20.48;64.22;101304.50;6341035;22;46473;-71
2021/09/16 02:24:32;;;;;;;;;7.50;7.50;;;;;20.45;64.04;101302.88;6339608;22;45254;-71
2021/09/16 02:26:57;;;;;;;;;9.75;8.50;;;;;20.42;64.41;101302.22;6339075;22;45242;-70
2021/09/16 02:29:23;;;;;;;;;10.00;7.50;;;;;20.31;64.57;101292.03;6365058;22;45254;-71
2021/09/16 02:31:48;;;;;;;;;9.00;8.25;;;;;20.23;64.80;101279.00;6340486;22;45291;-71
2021/09/16 02:34:14;;;;;;;;;7.75;7.50;;;;;20.37;64.40;101297.09;6338635;22;45257;-71
2021/09/16 02:36:39;;;;;;;;;8.00;8.00;;;;;20.27;64.21;101279.69;6340176;22;45314;-71
2021/09/16 02:39:05;;;;;;;;;9.00;9.00;;;;;20.30;64.06;101295.75;6341933;22;45476;-71
2021/09/16 02:41:30;;;;;;;;;9.00;8.25;;;;;20.45;64.01;101318.28;6342104;22;46022;-71
2021/09/16 02:43:56;;;;;;;;;11.25;9.50;;;;;20.35;63.91;101294.47;6342088;22;45178;-71
2021/09/16 02:46:21;;;;;;;;;9.00;9.00;;;;;20.22;64.06;101269.13;6342518;22;45641;-71
2021/09/16 02:48:46;;;;;;;;;9.00;7.25;;;;;20.42;64.49;101305.78;6339681;22;45729;-70
2021/09/16 02:51:12;;;;;;;;;10.50;9.00;;;;;20.27;63.95;101274.25;6342498;22;45356;-70
2021/09/16 02:53:37;;;;;;;;;9.25;8.50;;;;;20.33;64.03;101291.00;6342239;22;45642;-71
2021/09/16 02:56:03;;;;;;;;;7.50;7.50;;;;;20.36;64.29;101296.22;6340337;22;45241;-71
2021/09/16 02:58:28;;;;;;;;;7.25;5.75;;;;;20.31;64.20;101290.22;6339874;22;45483;-71
2021/09/16 03:00:54;;;;;;;;;10.75;9.50;;;;;20.43;63.86;101309.34;6341855;22;45340;-71
2021/09/16 03:03:19;;;;;;;;;7.00;7.00;;;;;20.40;64.25;101314.97;6366454;22;45378;-71
2021/09/16 03:05:46;;;;;;;;;9.00;8.00;;;;;20.39;64.09;101318.66;6342186;22;45289;-71
2021/09/16 03:08:12;;;;;;;;;8.00;8.00;;;;;20.42;63.98;101332.91;6340013;22;45478;-71
2021/09/16 03:10:38;;;;;;;;;9.00;9.00;;;;;20.42;63.73;101332.91;6341503;22;45391;-71
2021/09/16 03:13:03;;;;;;;;;11.50;10.00;;;;;20.33;63.96;101309.97;6366459;22;45642;-70
2021/09/16 03:15:29;;;;;;;;;11.50;10.00;;;;;20.32;63.58;101321.78;6340409;22;45510;-71
2021/09/16 03:17:54;;;;;;;;;11.50;11.00;;;;;20.13;63.58;101288.66;6339368;22;45428;-71
2021/09/16 03:20:20;;;;;;;;;10.25;9.75;;;;;20.18;63.53;101297.41;6342011;22;46354;-71
2021/09/16 03:22:45;;;;;;;;;10.75;9.00;;;;;20.36;63.93;101328.75;6366396;22;45172;-71
2021/09/16 03:25:11;;;;;;;;;7.50;7.00;;;;;20.25;63.95;101309.59;6342069;22;45737;-71
2021/09/16 03:27:36;;;;;;;;;10.50;10.00;;;;;20.26;63.89;101316.72;6339751;22;45302;-71
2021/09/16 03:30:05;;;;;;;;;9.00;8.25;;;;;20.34;63.49;101327.97;6341341;22;45525;-71
2021/09/16 03:32:30;;;;;;;;;7.75;7.75;;;;;20.30;63.48;101325.56;6341406;22;45175;-70
2021/09/16 03:34:56;;;;;;;;;9.50;8.50;;;;;20.15;62.98;101312.00;6342497;22;45217;-71
2021/09/16 03:37:21;;;;;;;;;9.00;9.00;;;;;20.15;63.15;101322.84;6342048;22;45250;-70
2021/09/16 03:39:46;;;;;;;;;14.25;13.00;;;;;19.99;63.62;101300.41;6339701;22;46968;-70
2021/09/16 03:42:12;;;;;;;;;10.25;8.75;;;;;20.11;63.91;101315.00;6339931;22;45260;-71
2021/09/16 03:44:37;;;;;;;;;13.50;10.00;;;;;20.08;63.75;101307.97;6339726;22;45353;-71
2021/09/16 03:47:04;;;;;;;;;10.25;10.25;;;;;20.13;63.45;101313.97;6341289;22;45199;-70
2021/09/16 03:49:30;;;;;;;;;10.25;10.00;;;;;20.08;63.25;101315.19;6341571;22;45344;-71
2021/09/16 03:51:55;;;;;;;;;8.50;8.50;;;;;19.93;63.60;101285.41;6342125;22;45166;-71
2021/09/16 03:54:21;;;;;;;;;8.00;7.50;;;;;20.14;63.78;101320.25;6342091;22;45313;-71
2021/09/16 03:56:46;;;;;;;;;8.50;8.50;;;;;20.14;63.42;101318.38;6342168;22;45356;-71
2021/09/16 03:59:11;;;;;;;;;10.00;9.25;;;;;20.09;63.23;101319.66;6341282;22;46163;-71
2021/09/16 04:01:37;;;;;;;;;10.50;9.00;;;;;20.02;63.06;101316.47;6342050;22;45296;-71
2021/09/16 04:04:02;;;;;;;;;9.00;9.00;;;;;20.10;63.40;101332.25;6341865;22;45243;-71
2021/09/16 04:06:28;;;;;;;;;8.75;8.75;;;;;19.94;63.70;101303.38;6340035;22;45717;-71
2021/09/16 04:08:53;;;;;;;;;8.25;7.25;;;;;20.17;63.27;101339.88;6341092;22;45368;-71
2021/09/16 04:11:18;;;;;;;;;8.00;8.00;;;;;20.11;63.76;101328.56;6341768;22;45254;-71
2021/09/16 04:13:44;;;;;;;;;11.00;11.00;;;;;20.15;63.46;101340.97;6341832;22;45222;-71
2021/09/16 04:16:09;;;;;;;;;8.50;8.50;;;;;20.13;63.25;101341.06;6339566;22;45406;-71
2021/09/16 04:18:34;;;;;;;;;13.50;9.50;;;;;19.92;63.54;101299.91;6341171;22;45308;-71
2021/09/16 04:21:00;;;;;;;;;7.25;7.25;;;;;20.05;63.88;101321.69;6342002;22;45279;-71
2021/09/16 04:23:25;;;;;;;;;8.50;8.50;;;;;20.17;63.87;101339.88;6340502;22;45317;-71
2021/09/16 04:25:50;;;;;;;;;8.00;8.00;;;;;20.03;63.73;101325.47;6341809;22;45312;-71
2021/09/16 04:28:16;;;;;;;;;8.00;8.00;;;;;20.19;63.59;101350.63;6338823;22;47082;-71
2021/09/16 04:30:41;;;;;;;;;8.00;8.00;;;;;20.21;64.00;101348.69;6339943;22;45369;-70
2021/09/16 04:33:07;;;;;;;;;7.50;7.50;;;;;20.10;63.86;101326.84;6341449;22;45214;-71
2021/09/16 04:35:32;;;;;;;;;7.25;7.25;;;;;20.13;63.50;101329.31;6339796;22;45205;-71
2021/09/16 04:37:58;;;;;;;;;8.00;7.00;;;;;20.20;63.63;101338.84;6339041;22;46810;-71
2021/09/16 04:40:23;;;;;;;;;17.50;17.50;;;;;20.25;63.65;101352.09;6341500;22;45237;-71
2021/09/16 04:42:48;;;;;;;;;8.50;7.00;;;;;20.12;63.51;101336.59;6339365;22;45241;-71
2021/09/16 04:45:14;;;;;;;;;9.00;7.75;;;;;20.26;63.34;101356.53;6341196;22;45096;-71
2021/09/16 04:47:42;;;;;;;;;12.75;10.50;;;;;20.25;63.58;101354.81;6338909;22;47267;-71
2021/09/16 04:50:12;;;;;;;;;9.50;7.75;;;;;20.09;63.47;101323.22;6338885;22;45273;-70
2021/09/16 04:52:38;;;;;;;;;8.00;8.00;;;;;20.27;62.90;101355.56;6365683;22;45246;-71
2021/09/16 04:55:05;;;;;;;;;8.00;8.00;;;;;20.14;62.88;101328.38;6341568;22;45702;-70
2021/09/16 04:57:30;;;;;;;;;12.75;10.75;;;;;20.24;62.69;101351.22;6339097;22;47481;-71
2021/09/16 04:59:56;;;;;;;;;11.00;8.75;;;;;20.26;62.80;101356.53;6339805;22;45139;-70
2021/09/16 05:02:21;;;;;;;;;10.50;10.50;;;;;20.06;62.71;101328.84;6340121;22;45376;-70
2021/09/16 05:04:46;;;;;;;;;10.75;9.75;;;;;20.16;62.68;101348.09;6341422;22;45246;-70
2021/09/16 05:07:12;;;;;;;;;12.00;9.50;;;;;19.89;63.07;101308.22;6341166;22;45285;-70
2021/09/16 05:09:37;;;;;;;;;9.50;8.50;;;;;20.11;62.96;101351.13;6340243;22;45354;-71
2021/09/16 05:12:03;;;;;;;;;12.00;11.00;;;;;20.06;62.84;101361.34;6341737;22;45235;-70
2021/09/16 05:14:28;;;;;;;;;10.25;8.00;;;;;20.05;62.83;101361.50;6341610;22;45399;-71
2021/09/16 05:16:54;;;;;;;;;13.25;10.00;;;;;20.01;63.27;101357.22;6339338;22;47806;-70
2021/09/16 05:19:19;;;;;;;;;7.50;6.75;;;;;19.96;62.81;101344.84;6365862;22;45377;-71
2021/09/16 05:21:45;;;;;;;;;11.75;10.00;;;;;19.95;62.88;101340.38;6339636;22;45257;-71
2021/09/16 05:26:55;;;;;;;;;8.50;8.50;;;;;20.10;62.94;101370.19;6341567;22;45347;-71
2021/09/16 05:29:20;;;;;;;;;10.75;10.75;;;;;19.98;62.88;101350.16;6338902;22;45690;-71
2021/09/16 05:31:46;;;;;;;;;10.50;9.50;;;;;20.11;63.03;101369.22;6338908;22;45278;-71
2021/09/16 05:34:11;;;;;;;;;8.00;8.00;;;;;20.05;63.07;101362.34;6339250;22;45801;-71
2021/09/16 05:36:37;;;;;;;;;10.75;9.00;;;;;20.14;62.96;101369.03;6341119;22;46508;-70
2021/09/16 05:39:03;;;;;;;;;9.25;8.50;;;;;20.13;62.60;101375.41;6340671;22;45260;-70
2021/09/16 05:41:30;;;;;;;;;6.25;6.25;;;;;20.02;63.00;101361.66;6341419;22;45294;-70
2021/09/16 05:43:56;;;;;;;;;10.75;9.75;;;;;20.01;62.96;101351.78;6339901;22;45263;-72
2021/09/16 05:46:22;;;;;;;;;9.25;7.75;;;;;19.88;62.75;101332.72;6340863;22;45458;-72
2021/09/16 05:48:48;;;;;;;;;9.00;8.00;;;;;20.10;63.14;101371.06;6341010;22;45392;-73
2021/09/16 05:51:15;;;;;;;;;7.00;7.00;;;;;19.93;62.85;101339.59;6341195;22;45338;-73
2021/09/16 05:53:40;;;;;;;;;10.75;8.50;;;;;20.10;62.76;101373.78;6339033;22;45283;-72
2021/09/16 05:56:06;;;;;;;;;9.50;8.00;;;;;19.80;62.74;101330.50;6338758;22;46979;-72
2021/09/16 05:58:31;;;;;;;;;7.50;7.50;;;;;19.92;63.25;101356.81;6335933;22;45324;-72
2021/09/16 06:00:56;;;;;;;;;8.25;8.25;;;;;19.85;62.65;101343.75;6338577;22;45254;-72
2021/09/16 06:03:24;;;;;;;;;9.00;8.00;;;;;19.91;62.74;101360.50;6338199;22;45289;-72
2021/09/16 06:05:50;;;;;;;;;7.75;7.75;;;;;19.74;62.84;101341.66;6340768;22;45109;-72
2021/09/16 06:08:15;;;;;;;;;12.50;8.50;;;;;19.77;62.74;101361.34;6340259;22;45151;-72
2021/09/16 06:10:41;;;;;;;;;9.25;8.00;;;;;19.79;62.50;101362.09;6338676;22;45641;-73
2021/09/16 06:13:09;;;;;;;;;6.50;6.50;;;;;19.80;62.84;101381.97;6340883;22;45261;-72
2021/09/16 06:15:34;;;;;;;;;8.25;8.25;;;;;19.73;62.99;101361.56;6366736;22;47099;-72
2021/09/16 06:18:00;;;;;;;;;9.25;8.00;;;;;19.68;62.75;101358.28;6341356;22;45278;-72
2021/09/16 06:20:25;;;;;;;;;8.00;7.25;;;;;19.77;62.74;101388.41;6341779;22;45698;-73
2021/09/16 06:22:51;;;;;;;;;5.50;5.50;;;;;19.76;62.82;101396.63;6340005;22;45712;-73
2021/09/16 06:25:18;;;;;;;;;8.00;7.00;;;;;19.70;62.47;101402.41;6366638;22;48221;-73
2021/09/16 06:27:45;;;;;;;;;5.25;5.25;;;;;19.59;62.86;101389.50;6366246;22;45223;-73
2021/09/16 06:30:10;;;;;;;;;8.25;8.00;;;;;19.54;63.05;101388.91;6339940;22;45226;-73
2021/09/16 06:32:37;;;;;;;;;5.25;5.25;;;;;19.56;63.17;101393.28;6339961;22;45125;-73
2021/09/16 06:35:04;;;;;;;;;8.00;7.25;;;;;19.69;62.91;101412.34;6340062;22;47552;-73
2021/09/16 06:37:30;;;;;;;;;7.00;7.00;;;;;19.53;63.40;101395.28;6339597;22;45966;-73
2021/09/16 06:39:55;;;;;;;;;8.00;5.25;;;;;19.64;63.00;101409.06;6339491;22;45287;-73
2021/09/16 06:42:21;;;;;;;;;8.25;7.00;;;;;19.68;62.80;101417.84;6365737;22;45350;-73
2021/09/16 06:44:46;;;;;;;;;10.25;8.00;;;;;19.81;63.18;101443.28;6365930;22;46973;-73
2021/09/16 06:47:11;;;;;;;;;9.50;6.75;;;;;19.59;63.04;101413.88;6366185;22;45325;-74
2021/09/16 06:49:40;;;;;;;;;8.50;7.75;;;;;19.58;62.44;101414.84;6341600;22;45750;-74
2021/09/16 06:52:06;;;;;;;;;6.00;6.00;;;;;19.53;62.41;101411.53;6341675;22;45761;-74
2021/09/16 06:54:32;;;;;;;;;6.75;6.25;;;;;19.59;62.85;101430.13;6341979;22;45500;-74
2021/09/16 06:56:57;;;;;;;;;9.00;8.00;;;;;19.67;62.68;101437.81;6340241;22;45415;-72
2021/09/16 06:59:22;;;;;;;;;7.00;7.00;;;;;19.61;62.59;101445.34;6342077;22;45443;-72
2021/09/16 07:01:48;;;;;;;;;6.00;5.25;;;;;19.57;62.54;101438.34;6342086;22;45275;-73
2021/09/16 07:04:13;;;;;;;;;7.00;6.25;;;;;19.50;62.98;101428.84;6341969;22;45306;-73
2021/09/16 07:06:38;;;;;;;;;7.25;6.50;;;;;19.55;62.72;101428.56;6339424;22;45631;-72
2021/09/16 07:09:04;;;;;;;;;4.50;3.75;;;;;19.55;62.45;101431.28;6338805;22;45478;-72
2021/09/16 07:11:29;;;;;;;;;6.50;6.25;;;;;19.48;62.36;101424.47;6339679;22;45474;-72
2021/09/16 07:13:54;;;;;;;;;7.75;6.50;;;;;19.41;62.76;101424.84;6341166;22;45402;-72
2021/09/16 07:16:20;;;;;;;;;6.50;6.50;;;;;19.37;62.52;101427.81;6339572;22;45876;-73
2021/09/16 07:18:45;;;;;;;;;6.25;5.75;;;;;19.39;62.69;101434.00;6340840;22;45286;-73
2021/09/16 07:21:10;;;;;;;;;5.75;5.25;;;;;19.46;62.40;101437.22;6340435;22;45348;-73
2021/09/16 07:23:36;;;;;;;;;7.00;5.75;;;;;19.44;62.39;101437.31;6341234;22;46025;-73
2021/09/16 07:26:01;;;;;;;;;6.25;5.00;;;;;19.38;62.40;101433.16;6341441;22;45174;-73
2021/09/16 07:28:26;;;;;;;;;7.25;6.00;;;;;19.44;62.42;101443.63;6341262;22;45406;-73
2021/09/16 07:30:52;;;;;;;;;5.50;4.00;;;;;19.44;61.95;101437.31;6336361;22;45467;-73
2021/09/16 07:33:17;;;;;;;;;7.00;4.25;;;;;19.40;62.10;101436.63;6340247;22;45412;-73
2021/09/16 07:35:42;;;;;;;;;6.25;6.00;;;;;19.43;62.31;101433.75;6341778;22;45172;-73
2021/09/16 07:38:08;;;;;;;;;5.00;5.00;;;;;19.39;62.08;101434.00;6341750;22;45250;-73
2021/09/16 07:40:33;;;;;;;;;8.50;7.25;;;;;19.44;62.11;101442.72;6340945;22;45179;-70
2021/09/16 07:42:59;;;;;;;;;5.50;5.50;;;;;19.41;61.99;101438.38;6338821;22;46883;-73
2021/09/16 07:45:24;;;;;;;;;8.75;5.50;;;;;19.35;61.78;101436.03;6341347;22;45206;-75
2021/09/16 07:47:49;;;;;;;;;6.25;6.25;;;;;19.41;61.68;101449.22;6340998;22;45438;-75
2021/09/16 07:50:15;;;;;;;;;4.50;4.50;;;;;19.42;61.45;101445.53;6341172;22;45224;-73
2021/09/16 07:52:40;;;;;;;;;7.00;6.00;;;;;19.46;61.94;101457.03;6341141;22;45242;-72
2021/09/16 07:55:09;;;;;;;;;4.00;3.75;;;;;19.39;61.53;101445.69;6330683;22;46039;-70
2021/09/16 07:57:34;;;;;;;;;6.00;4.75;;;;;19.38;60.91;101443.97;6333189;22;45430;-70
2021/09/16 08:00:00;;;;;;;;;3.25;3.25;;;;;19.32;60.73;101436.19;6338679;22;45433;-71
2021/09/16 08:02:25;;;;;;;;;4.75;4.75;;;;;19.47;60.77;101463.34;6362621;22;47394;-71
2021/09/16 08:04:51;;;;;;;;;4.75;4.25;;;;;19.28;60.58;101428.34;6339361;22;45411;-71
2021/09/16 08:07:16;;;;;;;;;4.75;4.00;;;;;19.49;60.43;101470.41;6311777;22;45402;-71
2021/09/16 08:09:41;;;;;;;;;3.25;3.25;;;;;19.47;60.28;101475.03;6337024;22;45302;-71
2021/09/16 08:12:07;;;;;;;;;4.50;3.25;;;;;19.39;60.66;101444.84;6338092;22;46002;-73
2021/09/16 08:14:32;;;;;;;;;6.50;5.75;;;;;19.55;60.00;101461.94;6339821;22;45190;-72
2021/09/16 08:17:01;;;;;;;;;4.00;4.00;;;;;19.33;60.65;101427.13;6340172;22;45304;-72
2021/09/16 08:19:27;;;;;;;;;3.00;3.00;;;;;19.31;59.71;101420.94;6339869;22;45400;-71
2021/09/16 08:21:52;;;;;;;;;3.00;3.00;;;;;19.53;59.37;101453.03;6339937;22;45970;-72
2021/09/16 08:24:18;;;;;;;;;3.00;2.00;;;;;19.41;59.14;101434.78;6337812;22;45970;-71
2021/09/16 08:26:43;;;;;;;;;2.00;2.00;;;;;19.54;58.62;101452.06;6338238;22;45378;-71
2021/09/16 08:29:09;;;;;;;;;3.00;2.00;;;;;19.46;58.29;101434.53;6340036;22;45403;-71
2021/09/16 08:31:35;;;;;;;;;1.75;1.75;;;;;19.42;58.29;101426.56;6339675;22;46109;-70
2021/09/16 08:34:00;;;;;;;;;2.50;2.50;;;;;19.35;58.60;101417.06;6339674;22;45485;-71
2021/09/16 08:36:27;;;;;;;;;1.00;1.00;;;;;19.43;58.68;101424.75;6340195;22;45392;-71
2021/09/16 08:38:52;;;;;;;;;2.00;2.00;;;;;19.37;57.64;101404.31;6339689;22;45324;-71
2021/09/16 08:41:18;;;;;;;;;1.00;1.00;;;;;19.67;57.30;101457.63;6337126;22;46947;-70
2021/09/16 08:43:44;;;;;;;;;0.00;0.00;;;;;19.52;57.36;101434.16;6340064;22;45259;-70
2021/09/16 08:46:10;;;;;;;;;1.00;1.00;;;;;19.53;57.23;101433.19;6339372;22;45287;-70
2021/09/16 08:48:36;;;;;;;;;2.00;2.00;;;;;19.54;57.84;101426.81;6337479;22;45341;-71
2021/09/16 08:51:02;;;;;;;;;0.00;0.00;;;;;19.63;56.61;101446.09;6336727;22;46096;-71
2021/09/16 08:53:30;;;;;;;;;0.00;0.00;;;;;19.74;56.71;101460.84;6338829;22;45727;-70
2021/09/16 08:55:58;;;;;;;;;3.00;2.00;;;;;19.56;56.81;101420.38;6339546;22;45407;-70
2021/09/16 08:58:27;;;;;;;;;1.00;1.00;;;;;19.54;56.66;101416.84;6338836;22;45305;-71
2021/09/16 09:00:53;;;;;;;;;0.25;0.00;;;;;19.86;56.43;101470.09;6339413;22;45436;-71
2021/09/16 09:03:18;;;;;;;;;0.00;0.00;;;;;19.74;56.76;101444.59;6339295;22;45539;-70
2021/09/16 09:05:44;;;;;;;;;1.00;1.00;;;;;19.61;56.22;101426.38;6339515;22;45329;-70
2021/09/16 09:08:11;;;;;;;;;2.75;2.00;;;;;19.90;56.88;101460.84;6339538;22;45623;-70
2021/09/16 09:10:46;;;;;;;;;3.75;2.25;;;;;19.92;56.47;101464.31;6339253;22;46349;-70
2021/09/16 09:13:18;;;;;;;;;1.50;1.50;;;;;19.86;56.06;101453.84;6339649;22;45567;-70
2021/09/16 09:15:45;;;;;;;;;1.00;1.00;;;;;20.05;56.66;101486.16;6340396;22;45628;-71
2021/09/16 09:18:17;;;;;;;;;2.00;2.00;;;;;19.72;56.61;101428.44;6338947;22;45400;-70
2021/09/16 09:20:59;;;;;;;;;3.00;2.00;;;;;19.99;55.72;101465.69;6339850;22;45494;-71
2021/09/16 09:23:29;;;;;;;;;2.00;1.25;;;;;19.90;56.20;101450.88;6336966;22;45515;-71
2021/09/16 09:25:56;;;;;;;;;3.00;3.00;;;;;19.96;56.57;101449.63;6339472;22;45723;-71
2021/09/16 09:28:27;;;;;;;;;2.50;2.00;;;;;20.11;56.00;101467.66;6339211;22;45349;-71
2021/09/16 09:30:53;;;;;;;;;2.75;2.00;;;;;20.16;55.87;101462.84;6339474;22;45285;-70
2021/09/16 09:33:28;;;;;;;;;3.75;2.00;;;;;20.11;55.73;101451.41;6338008;22;45748;-70
2021/09/16 09:35:54;;;;;;;;;1.50;1.50;;;;;20.32;56.19;101472.72;6340071;22;45386;-71
2021/09/16 09:38:22;;;;;;;;;2.25;2.25;;;;;20.15;55.96;101441.25;6337322;22;45368;-71
2021/09/16 09:40:51;;;;;;;;;4.00;3.00;;;;;20.34;56.16;101471.66;6338667;22;45999;-71
2021/09/16 09:43:25;;;;;;;;;2.00;2.00;;;;;20.34;55.76;101455.38;6329548;22;45350;-70
2021/09/16 09:46:08;;;;;;;;;3.25;1.75;;;;;20.30;55.45;101440.28;6332674;22;45715;-71
2021/09/16 09:48:40;;;;;;;;;2.25;2.25;;;;;20.42;55.22;101452.22;6332820;22;45288;-71
2021/09/16 09:51:08;;;;;;;;;3.00;3.00;;;;;20.40;54.70;101450.53;6337399;22;45609;-70
2021/09/16 09:53:43;;;;;;;;;3.50;3.50;;;;;20.53;55.11;101476.81;6339114;22;45457;-70
2021/09/16 09:56:17;;;;;;;;;2.25;2.25;;;;;20.31;54.87;101439.34;6339807;22;45320;-70
2021/09/16 09:58:47;;;;;;;;;4.00;2.25;;;;;20.58;54.67;101478.34;6339471;22;45274;-70
2021/09/16 10:01:32;;;;;;;;;4.00;3.75;;;;;20.60;53.98;101471.00;6337466;22;47185;-70
2021/09/16 10:03:59;;;;;;;;;2.25;2.25;;;;;20.62;54.81;101475.38;6339428;22;45300;-71
2021/09/16 10:06:35;;;;;;;;;5.75;3.25;;;;;20.61;55.07;101459.19;6340065;22;45549;-70
2021/09/16 10:09:09;;;;;;;;;4.50;3.75;;;;;20.60;54.30;101447.47;6338814;22;45776;-71
2021/09/16 10:11:44;;;;;;;;;4.00;3.25;;;;;20.85;54.43;101489.34;6339171;22;45865;-71
2021/09/16 10:14:10;;;;;;;;;3.00;3.00;;;;;20.67;54.86;101446.13;6339383;22;45648;-71
2021/09/16 10:16:36;;;;;;;;;6.50;5.00;;;;;20.88;54.25;101468.31;6339127;22;45639;-70
2021/09/16 10:19:01;;;;;;;;;4.00;4.00;;;;;20.77;54.83;101449.13;6339125;22;45387;-71
2021/09/16 10:21:27;;;;;;;;;3.25;3.25;;;;;20.82;53.58;101451.56;6339499;22;46404;-71
2021/09/16 10:23:53;;;;;;;;;4.00;3.00;;;;;20.78;53.34;101442.75;6338980;22;45328;-70
2021/09/16 10:26:37;;;;;;;;;3.00;3.00;;;;;20.80;53.59;101440.81;6339459;22;45203;-70
2021/09/16 10:29:28;;;;;;;;;4.00;3.75;;;;;21.01;53.29;101468.38;6338966;22;45517;-71
2021/09/16 10:32:05;;;;;;;;;3.00;3.00;;;;;21.04;53.36;101460.03;6338186;22;45371;-70
2021/09/16 10:34:41;;;;;;;;;3.75;3.25;;;;;20.85;53.19;101432.38;6339045;22;45435;-70
2021/09/16 10:37:15;;;;;;;;;4.00;4.00;;;;;20.85;52.97;101437.81;6336281;22;45435;-71
2021/09/16 10:39:42;;;;;;;;;4.00;4.00;;;;;20.99;53.77;101451.31;6335353;22;45772;-71
2021/09/16 10:42:09;;;;;;;;;3.00;3.00;;;;;20.93;53.39;101430.00;6336787;22;48019;-72
2021/09/16 10:44:36;;;;;;;;;5.00;4.00;;;;;20.97;53.16;101438.84;6336334;22;45243;-71
2021/09/16 10:47:16;;;;;;;;;6.00;5.00;;;;;21.14;53.20;101462.16;6337025;22;45399;-71
2021/09/16 10:49:41;;;;;;;;;5.00;5.00;;;;;20.87;52.93;101425.84;6336617;22;45526;-71
2021/09/16 10:52:09;;;;;;;;;4.00;4.00;;;;;21.13;53.35;101455.84;6339097;22;45254;-71
2021/09/16 10:54:56;;;;;;;;;5.25;4.00;;;;;21.17;52.44;101459.25;6336690;22;45481;-71
2021/09/16 10:57:21;;;;;;;;;5.00;4.00;;;;;21.18;53.22;101453.69;6339478;22;45623;-71
2021/09/16 10:59:56;;;;;;;;;4.25;4.25;;;;;21.21;52.73;101450.78;6333960;22;45826;-70
2021/09/16 11:02:32;;;;;;;;;4.25;4.25;;;;;21.24;53.18;101455.16;6335094;22;45525;-73
2021/09/16 11:04:58;;;;;;;;;3.00;2.50;;;;;21.27;53.55;101450.38;6334402;22;45484;-71
2021/09/16 11:07:32;;;;;;;;;4.25;4.25;;;;;21.30;53.28;101449.31;6336920;22;45471;-70
2021/09/16 11:10:15;;;;;;;;;6.00;4.50;;;;;21.33;52.32;101450.94;6335596;22;45736;-71
2021/09/16 11:12:46;;;;;;;;;6.00;4.50;;;;;21.10;52.88;101412.63;6333796;22;46475;-67
2021/09/16 11:15:42;;;;;;;;;3.25;3.00;;;;;21.16;53.47;101409.50;6336755;22;45621;-68
2021/09/16 11:18:21;;;;;;;;;2.00;2.00;;;;;21.40;52.83;101446.84;6332499;22;45519;-67
2021/09/16 11:23:49;;;;;;;;;3.75;3.75;;;;;21.19;52.33;101409.28;6318326;22;46156;-69
2021/09/16 11:26:31;;;;;;;;;;;;;;;;;;;;;
2021/09/16 11:29:05;;;;;;;;;5.00;4.00;;;;;21.43;52.75;101443.91;6335186;22;68842;-68